Memphis, Tennessee
Current Conditions -  °F | °C
As of 2:54 PM on Saturday 25 Oct 2014 (Local Time) from KMEM Reporting Station
Few Clouds Few Clouds  
Wind Chill: 81°   Ceiling: Unl
Heat Index: 82°   Visibility: 10mi
Dew Point: 62°   Wind: 7mph
Humidity: 52%   Direction: 220°SW
Pressure: 30.03"   Gusts: NA
Location:  35.15°N, 90.05°W
Report Text: KMEM 251954Z 22006KT 10SM FEW050 27/17 A3003 RMK AO2 SLP167 T02720167 $
Loading
Personal Weather Stations






























Interactive Weather Map
Tropical Storm Tracking
New forecast layout! Learn more

10-Day Weather Forecast

Advertisements
Track Severe Weather on mobile